ADDS TAF Board (Experimental) INFO Settings
IDs: Format: Expanded Condensed

KIAH - Houston/Bush Intl, TX, US

Issued at 2326 UTC 05 May 2016
Updated at: 0145 UTC 06 May 2016
Time0053Z 06/02Z 06/03Z 06/04Z 06/05Z 06/06Z 06/07Z 06/08Z 06/09Z 06/10Z 06/11Z 06/12Z 06/13Z 06/14Z
Type OBS PRVL PRVL PRVL PRVL PRVL PRVL PRVL PRVL PRVL PRVL PRVL PRVL PRVL
VIS 10 >6 >6 >6 >6 >6 >6 >6 >6 >6 >6 >6 >6 >6
CIG 250 -- -- -- -- -- -- -- -- -- -- -- -- --
Cover BKN SCT SCT SCT SCT SCT SCT SCT SCT SCT SCT SCT SCT SCT
FltCat VFR VFR VFR VFR VFR VFR VFR VFR VFR VFR VFR VFR VFR VFR
WX -- -- -- -- -- -- -- -- -- -- -- -- -- --
WDir 10 350 350 350 VRB VRB VRB VRB VRB VRB VRB VRB VRB VRB
WSpd 5 8 8 8 3 3 3 3 3 3 3 3 3 3
WGst -- -- -- -- -- -- -- -- -- -- -- -- -- --
R08/26
XWnd 5 8 8 8 VRB VRB VRB VRB VRB VRB VRB VRB VRB VRB
HWnd 1 -1 -1 -1 VRB VRB VRB VRB VRB VRB VRB VRB VRB VRB
R09/27
XWnd 5 8 8 8 VRB VRB VRB VRB VRB VRB VRB VRB VRB VRB
HWnd 1 -1 -1 -1 VRB VRB VRB VRB VRB VRB VRB VRB VRB VRB
R15/33
XWnd 3 2 2 2 VRB VRB VRB VRB VRB VRB VRB VRB VRB VRB
HWnd -4 -8 -8 -8 VRB VRB VRB VRB VRB VRB VRB VRB VRB VRB

NOTE: TEMPO conditions in [brackets]. Keep in mind TEMPO conditions might be better (lower impact) than prevailing conditions.

Raw TAF
KIAH 052326Z 0600/0706 35008KT P6SM SCT250
  FM060500 VRB03KT P6SM SCT250
  FM061700 14005KT P6SM SCT250
  FM062100 10005KT P6SM SCT250


Raw METAR
KIAH 060053Z 01005KT 10SM BKN250 24/08 A2995 RMK AO2 SLP141 T02390083
KIAH 052353Z 01007KT 10SM BKN250 26/08 A2994 RMK AO2 SLP137 T02560078 10294 20256 56009
KIAH 052253Z 33011KT 10SM BKN250 27/07 A2994 RMK AO2 SLP139 T02720067

METAR Board
Radar Display
Forecast Discussion

TAF Board Legend

Potential Impact
Threat None Slight Moderate High
Visibility (sm) ≥5.1 5.1>X≥3 3>X≥1 <1
Ceiling (100 ft) ≥30.1 30.1>X≥10 10>X≥5 <5
Wind Speed (kt) <10 10≤X<20 20≤X<30 ≥30
Wind Gust (kt) <15 15≤X<25 25≤X<35 ≥35
Weather No Wx Reported VCTS,-TS,-FZRA,SN TS,FZRA +TS,+FZRA,+SN